sensor_id;sensor_type;location;lat;lon;timestamp;P1;durP1;ratioP1;P2;durP2;ratioP2
29246;SDS011;16272;48.188;9.964;2022-10-20T00:00:59;17.67;;;7.87;;
29246;SDS011;16272;48.188;9.964;2022-10-20T00:03:25;19.25;;;8.75;;
29246;SDS011;16272;48.188;9.964;2022-10-20T00:05:51;20.83;;;8.85;;
29246;SDS011;16272;48.188;9.964;2022-10-20T00:08:18;18.98;;;8.30;;
29246;SDS011;16272;48.188;9.964;2022-10-20T00:10:51;23.60;;;9.37;;
29246;SDS011;16272;48.188;9.964;2022-10-20T00:13:20;21.02;;;8.90;;
29246;SDS011;16272;48.188;9.964;2022-10-20T00:15:50;19.70;;;9.03;;
29246;SDS011;16272;48.188;9.964;2022-10-20T00:18:16;22.05;;;8.43;;
29246;SDS011;16272;48.188;9.964;2022-10-20T00:20:41;24.43;;;9.70;;
29246;SDS011;16272;48.188;9.964;2022-10-20T00:23:07;20.95;;;8.32;;
29246;SDS011;16272;48.188;9.964;2022-10-20T00:25:32;21.70;;;8.60;;
29246;SDS011;16272;48.188;9.964;2022-10-20T00:27:57;21.30;;;8.97;;
29246;SDS011;16272;48.188;9.964;2022-10-20T00:30:22;21.57;;;9.43;;
29246;SDS011;16272;48.188;9.964;2022-10-20T00:32:48;20.03;;;9.03;;
29246;SDS011;16272;48.188;9.964;2022-10-20T00:35:13;20.67;;;8.50;;
29246;SDS011;16272;48.188;9.964;2022-10-20T00:37:38;21.50;;;9.43;;
29246;SDS011;16272;48.188;9.964;2022-10-20T00:40:04;21.30;;;9.40;;
29246;SDS011;16272;48.188;9.964;2022-10-20T00:42:29;22.15;;;10.07;;
29246;SDS011;16272;48.188;9.964;2022-10-20T00:44:56;27.97;;;10.10;;
29246;SDS011;16272;48.188;9.964;2022-10-20T00:49:52;22.40;;;9.77;;
29246;SDS011;16272;48.188;9.964;2022-10-20T00:52:19;23.42;;;9.80;;
29246;SDS011;16272;48.188;9.964;2022-10-20T00:54:46;21.03;;;9.80;;
29246;SDS011;16272;48.188;9.964;2022-10-20T00:57:12;22.42;;;9.60;;
29246;SDS011;16272;48.188;9.964;2022-10-20T00:59:37;21.67;;;9.73;;
29246;SDS011;16272;48.188;9.964;2022-10-20T01:02:04;21.20;;;8.95;;
29246;SDS011;16272;48.188;9.964;2022-10-20T01:04:33;22.20;;;9.00;;
29246;SDS011;16272;48.188;9.964;2022-10-20T01:07:00;22.05;;;9.18;;
29246;SDS011;16272;48.188;9.964;2022-10-20T01:09:26;21.27;;;9.70;;
29246;SDS011;16272;48.188;9.964;2022-10-20T01:17:31;22.70;;;9.60;;
29246;SDS011;16272;48.188;9.964;2022-10-20T01:28:36;25.27;;;10.20;;
29246;SDS011;16272;48.188;9.964;2022-10-20T01:31:21;27.40;;;10.30;;
29246;SDS011;16272;48.188;9.964;2022-10-20T01:34:36;23.07;;;9.60;;
29246;SDS011;16272;48.188;9.964;2022-10-20T01:39:23;25.20;;;9.88;;
29246;SDS011;16272;48.188;9.964;2022-10-20T01:41:57;27.65;;;11.02;;
29246;SDS011;16272;48.188;9.964;2022-10-20T01:44:27;28.75;;;10.95;;
29246;SDS011;16272;48.188;9.964;2022-10-20T01:46:55;23.00;;;10.03;;
29246;SDS011;16272;48.188;9.964;2022-10-20T01:49:22;25.73;;;10.65;;
29246;SDS011;16272;48.188;9.964;2022-10-20T01:51:49;25.33;;;10.43;;
29246;SDS011;16272;48.188;9.964;2022-10-20T01:54:21;25.83;;;10.40;;
29246;SDS011;16272;48.188;9.964;2022-10-20T01:57:12;26.15;;;10.38;;
29246;SDS011;16272;48.188;9.964;2022-10-20T02:05:36;25.85;;;10.70;;
29246;SDS011;16272;48.188;9.964;2022-10-20T02:08:20;28.97;;;11.30;;
29246;SDS011;16272;48.188;9.964;2022-10-20T02:10:56;27.08;;;12.13;;
29246;SDS011;16272;48.188;9.964;2022-10-20T02:13:25;25.77;;;10.52;;
29246;SDS011;16272;48.188;9.964;2022-10-20T02:15:55;25.95;;;11.15;;
29246;SDS011;16272;48.188;9.964;2022-10-20T02:18:41;25.38;;;10.60;;
29246;SDS011;16272;48.188;9.964;2022-10-20T02:21:07;29.27;;;11.33;;
29246;SDS011;16272;48.188;9.964;2022-10-20T02:23:34;27.33;;;11.90;;
29246;SDS011;16272;48.188;9.964;2022-10-20T02:26:05;26.58;;;10.65;;
29246;SDS011;16272;48.188;9.964;2022-10-20T02:28:34;27.70;;;10.93;;
29246;SDS011;16272;48.188;9.964;2022-10-20T02:31:01;27.20;;;11.18;;
29246;SDS011;16272;48.188;9.964;2022-10-20T02:33:28;25.10;;;10.90;;
29246;SDS011;16272;48.188;9.964;2022-10-20T02:35:55;28.88;;;11.85;;
29246;SDS011;16272;48.188;9.964;2022-10-20T02:38:22;27.70;;;10.63;;
29246;SDS011;16272;48.188;9.964;2022-10-20T02:40:48;29.17;;;11.63;;
29246;SDS011;16272;48.188;9.964;2022-10-20T02:43:13;28.57;;;10.77;;
29246;SDS011;16272;48.188;9.964;2022-10-20T02:45:39;32.67;;;11.68;;
29246;SDS011;16272;48.188;9.964;2022-10-20T02:48:05;31.27;;;11.73;;
29246;SDS011;16272;48.188;9.964;2022-10-20T02:50:33;26.08;;;10.13;;
29246;SDS011;16272;48.188;9.964;2022-10-20T02:52:59;29.05;;;11.32;;
29246;SDS011;16272;48.188;9.964;2022-10-20T02:55:24;27.20;;;10.67;;
29246;SDS011;16272;48.188;9.964;2022-10-20T02:57:49;26.97;;;11.50;;
29246;SDS011;16272;48.188;9.964;2022-10-20T03:00:17;27.25;;;11.65;;
29246;SDS011;16272;48.188;9.964;2022-10-20T03:02:43;27.77;;;11.57;;
29246;SDS011;16272;48.188;9.964;2022-10-20T03:05:09;32.10;;;11.07;;
29246;SDS011;16272;48.188;9.964;2022-10-20T03:07:34;30.33;;;11.27;;
29246;SDS011;16272;48.188;9.964;2022-10-20T03:09:59;29.33;;;11.57;;
29246;SDS011;16272;48.188;9.964;2022-10-20T03:12:25;31.87;;;12.40;;
29246;SDS011;16272;48.188;9.964;2022-10-20T03:14:50;30.27;;;11.40;;
29246;SDS011;16272;48.188;9.964;2022-10-20T03:17:15;34.50;;;11.70;;
29246;SDS011;16272;48.188;9.964;2022-10-20T03:19:41;31.90;;;11.45;;
29246;SDS011;16272;48.188;9.964;2022-10-20T03:22:06;29.33;;;12.20;;
29246;SDS011;16272;48.188;9.964;2022-10-20T03:24:32;34.23;;;12.20;;
29246;SDS011;16272;48.188;9.964;2022-10-20T03:26:57;36.47;;;12.33;;
29246;SDS011;16272;48.188;9.964;2022-10-20T03:29:22;30.47;;;11.50;;
29246;SDS011;16272;48.188;9.964;2022-10-20T03:31:48;36.70;;;13.10;;
29246;SDS011;16272;48.188;9.964;2022-10-20T03:34:13;35.65;;;12.82;;
29246;SDS011;16272;48.188;9.964;2022-10-20T03:36:39;37.63;;;13.77;;
29246;SDS011;16272;48.188;9.964;2022-10-20T03:39:04;39.33;;;13.77;;
29246;SDS011;16272;48.188;9.964;2022-10-20T03:41:29;46.50;;;14.73;;
29246;SDS011;16272;48.188;9.964;2022-10-20T03:43:55;39.40;;;13.93;;
29246;SDS011;16272;48.188;9.964;2022-10-20T03:46:20;43.10;;;14.90;;
29246;SDS011;16272;48.188;9.964;2022-10-20T03:48:45;40.13;;;13.93;;
29246;SDS011;16272;48.188;9.964;2022-10-20T03:51:11;39.30;;;14.50;;
29246;SDS011;16272;48.188;9.964;2022-10-20T03:53:38;43.45;;;14.93;;
29246;SDS011;16272;48.188;9.964;2022-10-20T03:56:06;42.00;;;14.00;;
29246;SDS011;16272;48.188;9.964;2022-10-20T03:58:39;41.42;;;14.52;;
29246;SDS011;16272;48.188;9.964;2022-10-20T04:01:04;42.00;;;14.30;;
29246;SDS011;16272;48.188;9.964;2022-10-20T04:03:32;48.80;;;15.50;;
29246;SDS011;16272;48.188;9.964;2022-10-20T04:05:57;44.50;;;15.60;;
29246;SDS011;16272;48.188;9.964;2022-10-20T04:08:22;49.90;;;16.23;;
29246;SDS011;16272;48.188;9.964;2022-10-20T04:10:48;46.03;;;15.40;;
29246;SDS011;16272;48.188;9.964;2022-10-20T04:13:13;44.13;;;15.97;;
29246;SDS011;16272;48.188;9.964;2022-10-20T04:15:39;55.10;;;17.47;;
29246;SDS011;16272;48.188;9.964;2022-10-20T04:18:04;49.97;;;16.23;;
29246;SDS011;16272;48.188;9.964;2022-10-20T04:20:29;49.43;;;15.93;;
29246;SDS011;16272;48.188;9.964;2022-10-20T04:22:55;55.77;;;16.43;;
29246;SDS011;16272;48.188;9.964;2022-10-20T04:25:20;52.23;;;16.30;;
29246;SDS011;16272;48.188;9.964;2022-10-20T04:27:45;52.37;;;16.13;;
29246;SDS011;16272;48.188;9.964;2022-10-20T04:30:11;53.03;;;17.17;;
29246;SDS011;16272;48.188;9.964;2022-10-20T04:32:36;46.35;;;16.63;;
29246;SDS011;16272;48.188;9.964;2022-10-20T04:35:02;50.27;;;17.00;;
29246;SDS011;16272;48.188;9.964;2022-10-20T04:37:27;55.57;;;17.33;;
29246;SDS011;16272;48.188;9.964;2022-10-20T04:39:52;59.67;;;16.13;;
29246;SDS011;16272;48.188;9.964;2022-10-20T04:42:18;54.10;;;17.27;;
29246;SDS011;16272;48.188;9.964;2022-10-20T04:44:44;52.00;;;16.77;;
29246;SDS011;16272;48.188;9.964;2022-10-20T04:47:09;53.60;;;17.13;;
29246;SDS011;16272;48.188;9.964;2022-10-20T04:49:35;50.13;;;16.08;;
29246;SDS011;16272;48.188;9.964;2022-10-20T04:52:01;55.92;;;16.75;;
29246;SDS011;16272;48.188;9.964;2022-10-20T04:54:27;50.70;;;15.43;;
29246;SDS011;16272;48.188;9.964;2022-10-20T04:56:52;52.15;;;16.45;;
29246;SDS011;16272;48.188;9.964;2022-10-20T04:59:18;56.43;;;17.20;;
29246;SDS011;16272;48.188;9.964;2022-10-20T05:01:43;55.47;;;16.67;;
29246;SDS011;16272;48.188;9.964;2022-10-20T05:04:09;60.33;;;15.80;;
29246;SDS011;16272;48.188;9.964;2022-10-20T05:06:34;48.17;;;16.40;;
29246;SDS011;16272;48.188;9.964;2022-10-20T05:09:01;55.73;;;16.90;;
29246;SDS011;16272;48.188;9.964;2022-10-20T05:11:29;58.88;;;16.48;;
29246;SDS011;16272;48.188;9.964;2022-10-20T05:13:57;55.95;;;17.08;;
29246;SDS011;16272;48.188;9.964;2022-10-20T05:16:23;50.30;;;15.43;;
29246;SDS011;16272;48.188;9.964;2022-10-20T05:18:49;55.50;;;16.20;;
29246;SDS011;16272;48.188;9.964;2022-10-20T05:21:18;54.58;;;15.88;;
29246;SDS011;16272;48.188;9.964;2022-10-20T05:23:45;54.25;;;16.05;;
29246;SDS011;16272;48.188;9.964;2022-10-20T05:26:15;53.07;;;15.90;;
29246;SDS011;16272;48.188;9.964;2022-10-20T05:28:44;44.60;;;15.38;;
29246;SDS011;16272;48.188;9.964;2022-10-20T05:31:10;56.65;;;15.50;;
29246;SDS011;16272;48.188;9.964;2022-10-20T05:33:36;51.45;;;15.30;;
29246;SDS011;16272;48.188;9.964;2022-10-20T05:36:05;46.03;;;14.90;;
29246;SDS011;16272;48.188;9.964;2022-10-20T05:38:34;55.97;;;17.48;;
29246;SDS011;16272;48.188;9.964;2022-10-20T05:41:04;51.67;;;16.67;;
29246;SDS011;16272;48.188;9.964;2022-10-20T05:43:31;49.15;;;15.48;;
29246;SDS011;16272;48.188;9.964;2022-10-20T05:45:56;47.73;;;15.10;;
29246;SDS011;16272;48.188;9.964;2022-10-20T05:48:21;49.57;;;15.00;;
29246;SDS011;16272;48.188;9.964;2022-10-20T05:50:47;45.10;;;14.40;;
29246;SDS011;16272;48.188;9.964;2022-10-20T05:53:12;49.47;;;15.80;;
29246;SDS011;16272;48.188;9.964;2022-10-20T05:55:38;53.67;;;15.37;;
29246;SDS011;16272;48.188;9.964;2022-10-20T05:58:03;48.87;;;15.50;;
29246;SDS011;16272;48.188;9.964;2022-10-20T06:00:28;55.97;;;17.00;;
29246;SDS011;16272;48.188;9.964;2022-10-20T06:02:56;49.23;;;15.57;;
29246;SDS011;16272;48.188;9.964;2022-10-20T06:05:21;56.38;;;16.38;;
29246;SDS011;16272;48.188;9.964;2022-10-20T06:07:47;56.72;;;16.90;;
29246;SDS011;16272;48.188;9.964;2022-10-20T06:10:12;55.93;;;17.03;;
29246;SDS011;16272;48.188;9.964;2022-10-20T06:12:38;63.93;;;16.83;;
29246;SDS011;16272;48.188;9.964;2022-10-20T06:15:03;54.77;;;15.90;;
29246;SDS011;16272;48.188;9.964;2022-10-20T06:17:29;61.53;;;17.10;;
29246;SDS011;16272;48.188;9.964;2022-10-20T06:19:54;53.27;;;16.10;;
29246;SDS011;16272;48.188;9.964;2022-10-20T06:22:20;57.53;;;15.73;;
29246;SDS011;16272;48.188;9.964;2022-10-20T06:24:45;52.23;;;15.87;;
29246;SDS011;16272;48.188;9.964;2022-10-20T06:27:10;54.00;;;15.53;;
29246;SDS011;16272;48.188;9.964;2022-10-20T06:29:36;51.93;;;15.20;;
29246;SDS011;16272;48.188;9.964;2022-10-20T06:32:01;51.57;;;15.63;;
29246;SDS011;16272;48.188;9.964;2022-10-20T06:34:26;48.30;;;15.43;;
29246;SDS011;16272;48.188;9.964;2022-10-20T06:36:52;54.70;;;16.53;;
29246;SDS011;16272;48.188;9.964;2022-10-20T06:39:21;51.50;;;15.20;;
29246;SDS011;16272;48.188;9.964;2022-10-20T06:41:51;51.88;;;16.02;;
29246;SDS011;16272;48.188;9.964;2022-10-20T06:44:18;57.10;;;16.80;;
29246;SDS011;16272;48.188;9.964;2022-10-20T06:46:44;49.63;;;16.05;;
29246;SDS011;16272;48.188;9.964;2022-10-20T06:49:10;54.97;;;15.67;;
29246;SDS011;16272;48.188;9.964;2022-10-20T06:51:36;56.17;;;17.23;;
29246;SDS011;16272;48.188;9.964;2022-10-20T06:54:02;50.77;;;15.17;;
29246;SDS011;16272;48.188;9.964;2022-10-20T06:59:00;54.35;;;16.02;;
29246;SDS011;16272;48.188;9.964;2022-10-20T07:01:27;62.20;;;16.85;;
29246;SDS011;16272;48.188;9.964;2022-10-20T07:03:56;57.57;;;16.13;;
29246;SDS011;16272;48.188;9.964;2022-10-20T07:06:31;61.53;;;17.30;;
29246;SDS011;16272;48.188;9.964;2022-10-20T07:09:00;56.22;;;17.13;;
29246;SDS011;16272;48.188;9.964;2022-10-20T07:11:32;49.88;;;16.55;;
29246;SDS011;16272;48.188;9.964;2022-10-20T07:13:58;54.00;;;16.90;;
29246;SDS011;16272;48.188;9.964;2022-10-20T07:16:25;52.10;;;15.53;;
29246;SDS011;16272;48.188;9.964;2022-10-20T07:18:52;47.90;;;15.52;;
29246;SDS011;16272;48.188;9.964;2022-10-20T07:21:19;47.77;;;15.30;;
29246;SDS011;16272;48.188;9.964;2022-10-20T07:23:47;46.83;;;15.15;;
29246;SDS011;16272;48.188;9.964;2022-10-20T07:26:14;46.47;;;14.95;;
29246;SDS011;16272;48.188;9.964;2022-10-20T07:28:41;43.95;;;14.82;;
29246;SDS011;16272;48.188;9.964;2022-10-20T07:31:13;46.25;;;15.13;;
29246;SDS011;16272;48.188;9.964;2022-10-20T07:33:46;40.83;;;14.53;;
29246;SDS011;16272;48.188;9.964;2022-10-20T07:36:20;39.53;;;14.15;;
29246;SDS011;16272;48.188;9.964;2022-10-20T07:38:48;36.47;;;13.65;;
29246;SDS011;16272;48.188;9.964;2022-10-20T07:41:14;34.53;;;11.75;;
29246;SDS011;16272;48.188;9.964;2022-10-20T07:43:40;38.53;;;13.87;;
29246;SDS011;16272;48.188;9.964;2022-10-20T07:46:06;32.75;;;12.15;;
29246;SDS011;16272;48.188;9.964;2022-10-20T07:48:32;37.88;;;13.63;;
29246;SDS011;16272;48.188;9.964;2022-10-20T07:51:44;36.00;;;12.70;;
29246;SDS011;16272;48.188;9.964;2022-10-20T07:53:54;37.27;;;13.50;;
29246;SDS011;16272;48.188;9.964;2022-10-20T07:56:29;34.50;;;13.00;;
29246;SDS011;16272;48.188;9.964;2022-10-20T07:58:55;31.75;;;12.27;;
29246;SDS011;16272;48.188;9.964;2022-10-20T08:01:21;34.23;;;12.57;;
29246;SDS011;16272;48.188;9.964;2022-10-20T08:03:46;32.93;;;12.00;;
29246;SDS011;16272;48.188;9.964;2022-10-20T08:06:12;27.83;;;11.20;;
29246;SDS011;16272;48.188;9.964;2022-10-20T08:08:37;30.93;;;12.20;;
29246;SDS011;16272;48.188;9.964;2022-10-20T08:11:03;33.33;;;12.80;;
29246;SDS011;16272;48.188;9.964;2022-10-20T08:13:28;33.33;;;12.60;;
29246;SDS011;16272;48.188;9.964;2022-10-20T08:15:55;32.13;;;11.77;;
29246;SDS011;16272;48.188;9.964;2022-10-20T08:18:21;29.67;;;11.15;;
29246;SDS011;16272;48.188;9.964;2022-10-20T08:20:46;29.40;;;11.63;;
29246;SDS011;16272;48.188;9.964;2022-10-20T08:23:12;27.07;;;10.97;;
29246;SDS011;16272;48.188;9.964;2022-10-20T08:25:38;30.23;;;11.65;;
29246;SDS011;16272;48.188;9.964;2022-10-20T08:28:03;32.20;;;12.48;;
29246;SDS011;16272;48.188;9.964;2022-10-20T08:30:29;32.90;;;11.50;;
29246;SDS011;16272;48.188;9.964;2022-10-20T08:32:54;33.20;;;12.70;;
29246;SDS011;16272;48.188;9.964;2022-10-20T08:35:22;27.47;;;10.83;;
29246;SDS011;16272;48.188;9.964;2022-10-20T08:37:47;26.75;;;11.15;;
29246;SDS011;16272;48.188;9.964;2022-10-20T08:40:15;26.53;;;10.27;;
29246;SDS011;16272;48.188;9.964;2022-10-20T08:42:42;28.25;;;11.10;;
29246;SDS011;16272;48.188;9.964;2022-10-20T08:45:15;29.25;;;11.05;;
29246;SDS011;16272;48.188;9.964;2022-10-20T08:47:43;26.48;;;10.95;;
29246;SDS011;16272;48.188;9.964;2022-10-20T08:50:10;27.23;;;10.93;;
29246;SDS011;16272;48.188;9.964;2022-10-20T08:52:40;31.85;;;11.40;;
29246;SDS011;16272;48.188;9.964;2022-10-20T08:55:07;26.73;;;10.85;;
29246;SDS011;16272;48.188;9.964;2022-10-20T08:57:43;29.30;;;10.90;;
29246;SDS011;16272;48.188;9.964;2022-10-20T09:02:39;27.97;;;10.00;;
29246;SDS011;16272;48.188;9.964;2022-10-20T09:05:05;26.55;;;10.10;;
29246;SDS011;16272;48.188;9.964;2022-10-20T09:07:37;24.63;;;9.90;;
29246;SDS011;16272;48.188;9.964;2022-10-20T09:10:08;23.00;;;9.77;;
29246;SDS011;16272;48.188;9.964;2022-10-20T09:12:48;23.67;;;9.85;;
29246;SDS011;16272;48.188;9.964;2022-10-20T09:15:15;23.15;;;9.60;;
29246;SDS011;16272;48.188;9.964;2022-10-20T09:18:04;22.45;;;10.10;;
29246;SDS011;16272;48.188;9.964;2022-10-20T09:23:13;26.63;;;9.93;;
29246;SDS011;16272;48.188;9.964;2022-10-20T09:25:40;25.73;;;10.48;;
29246;SDS011;16272;48.188;9.964;2022-10-20T09:28:10;22.55;;;10.02;;
29246;SDS011;16272;48.188;9.964;2022-10-20T09:30:45;23.77;;;9.82;;
29246;SDS011;16272;48.188;9.964;2022-10-20T09:33:20;21.77;;;9.83;;
29246;SDS011;16272;48.188;9.964;2022-10-20T09:35:47;22.35;;;9.73;;
29246;SDS011;16272;48.188;9.964;2022-10-20T09:38:17;21.40;;;9.73;;
29246;SDS011;16272;48.188;9.964;2022-10-20T09:43:28;19.63;;;9.10;;
29246;SDS011;16272;48.188;9.964;2022-10-20T09:46:03;21.88;;;8.32;;
29246;SDS011;16272;48.188;9.964;2022-10-20T09:48:32;19.80;;;8.52;;
29246;SDS011;16272;48.188;9.964;2022-10-20T09:51:00;20.50;;;8.00;;
29246;SDS011;16272;48.188;9.964;2022-10-20T09:53:45;21.52;;;8.90;;
29246;SDS011;16272;48.188;9.964;2022-10-20T09:56:11;20.25;;;8.35;;
29246;SDS011;16272;48.188;9.964;2022-10-20T09:58:37;20.67;;;9.23;;
29246;SDS011;16272;48.188;9.964;2022-10-20T10:01:12;17.58;;;7.95;;
29246;SDS011;16272;48.188;9.964;2022-10-20T10:03:44;19.33;;;8.90;;
29246;SDS011;16272;48.188;9.964;2022-10-20T10:12:02;19.83;;;9.52;;
29246;SDS011;16272;48.188;9.964;2022-10-20T10:14:29;20.33;;;8.45;;
29246;SDS011;16272;48.188;9.964;2022-10-20T10:16:57;19.35;;;8.55;;
29246;SDS011;16272;48.188;9.964;2022-10-20T10:19:30;20.90;;;9.10;;
29246;SDS011;16272;48.188;9.964;2022-10-20T10:21:59;17.93;;;7.97;;
29246;SDS011;16272;48.188;9.964;2022-10-20T10:24:29;17.67;;;7.72;;
29246;SDS011;16272;48.188;9.964;2022-10-20T10:29:51;17.27;;;7.93;;
29246;SDS011;16272;48.188;9.964;2022-10-20T10:32:28;19.27;;;8.43;;
29246;SDS011;16272;48.188;9.964;2022-10-20T10:34:59;19.80;;;8.43;;
29246;SDS011;16272;48.188;9.964;2022-10-20T10:37:32;17.98;;;8.10;;
29246;SDS011;16272;48.188;9.964;2022-10-20T10:39:58;17.73;;;7.75;;
29246;SDS011;16272;48.188;9.964;2022-10-20T10:42:32;17.98;;;8.40;;
29246;SDS011;16272;48.188;9.964;2022-10-20T10:45:03;17.33;;;8.10;;
29246;SDS011;16272;48.188;9.964;2022-10-20T10:47:47;16.23;;;7.53;;
29246;SDS011;16272;48.188;9.964;2022-10-20T10:50:43;18.80;;;8.43;;
29246;SDS011;16272;48.188;9.964;2022-10-20T10:56:12;17.13;;;7.53;;
29246;SDS011;16272;48.188;9.964;2022-10-20T10:58:57;17.25;;;7.57;;
29246;SDS011;16272;48.188;9.964;2022-10-20T11:01:42;15.33;;;7.30;;
29246;SDS011;16272;48.188;9.964;2022-10-20T11:04:37;19.60;;;8.45;;
29246;SDS011;16272;48.188;9.964;2022-10-20T11:20:15;19.90;;;8.52;;
29246;SDS011;16272;48.188;9.964;2022-10-20T11:22:54;19.45;;;8.75;;
29246;SDS011;16272;48.188;9.964;2022-10-20T11:28:41;23.90;;;9.50;;
29246;SDS011;16272;48.188;9.964;2022-10-20T11:31:44;23.45;;;9.80;;
29246;SDS011;16272;48.188;9.964;2022-10-20T11:34:17;23.25;;;9.60;;
29246;SDS011;16272;48.188;9.964;2022-10-20T11:40:11;24.15;;;10.80;;
29246;SDS011;16272;48.188;9.964;2022-10-20T11:48:28;24.75;;;10.52;;
29246;SDS011;16272;48.188;9.964;2022-10-20T11:50:50;27.50;;;11.32;;
29246;SDS011;16272;48.188;9.964;2022-10-20T12:04:22;24.50;;;10.73;;
29246;SDS011;16272;48.188;9.964;2022-10-20T12:07:05;24.85;;;11.00;;
29246;SDS011;16272;48.188;9.964;2022-10-20T12:09:37;28.17;;;11.43;;
29246;SDS011;16272;48.188;9.964;2022-10-20T12:12:33;25.98;;;11.07;;
29246;SDS011;16272;48.188;9.964;2022-10-20T12:15:24;27.48;;;11.60;;
29246;SDS011;16272;48.188;9.964;2022-10-20T12:17:52;25.42;;;12.25;;
29246;SDS011;16272;48.188;9.964;2022-10-20T12:22:44;29.57;;;12.00;;
29246;SDS011;16272;48.188;9.964;2022-10-20T12:25:21;29.27;;;11.97;;
29246;SDS011;16272;48.188;9.964;2022-10-20T12:30:58;28.95;;;12.27;;
29246;SDS011;16272;48.188;9.964;2022-10-20T12:36:35;28.35;;;10.93;;
29246;SDS011;16272;48.188;9.964;2022-10-20T12:39:12;26.10;;;10.67;;
29246;SDS011;16272;48.188;9.964;2022-10-20T12:41:59;27.35;;;11.15;;
29246;SDS011;16272;48.188;9.964;2022-10-20T12:44:28;26.63;;;11.30;;
29246;SDS011;16272;48.188;9.964;2022-10-20T12:47:05;25.02;;;10.85;;
29246;SDS011;16272;48.188;9.964;2022-10-20T12:49:35;27.05;;;11.40;;
29246;SDS011;16272;48.188;9.964;2022-10-20T12:52:03;27.83;;;11.70;;
29246;SDS011;16272;48.188;9.964;2022-10-20T12:54:35;26.35;;;11.50;;
29246;SDS011;16272;48.188;9.964;2022-10-20T12:57:05;26.15;;;11.60;;
29246;SDS011;16272;48.188;9.964;2022-10-20T12:59:47;25.95;;;10.80;;
29246;SDS011;16272;48.188;9.964;2022-10-20T13:18:13;23.60;;;10.77;;
29246;SDS011;16272;48.188;9.964;2022-10-20T13:23:16;27.45;;;11.32;;
29246;SDS011;16272;48.188;9.964;2022-10-20T13:25:50;22.83;;;10.55;;
29246;SDS011;16272;48.188;9.964;2022-10-20T13:28:19;25.90;;;11.47;;
29246;SDS011;16272;48.188;9.964;2022-10-20T13:47:10;24.50;;;11.07;;
29246;SDS011;16272;48.188;9.964;2022-10-20T13:49:56;25.88;;;11.23;;
29246;SDS011;16272;48.188;9.964;2022-10-20T13:52:27;25.88;;;11.18;;
29246;SDS011;16272;48.188;9.964;2022-10-20T13:54:56;24.50;;;10.87;;
29246;SDS011;16272;48.188;9.964;2022-10-20T13:59:59;28.63;;;11.38;;
29246;SDS011;16272;48.188;9.964;2022-10-20T14:02:27;25.50;;;12.13;;
29246;SDS011;16272;48.188;9.964;2022-10-20T14:05:01;24.52;;;11.07;;
29246;SDS011;16272;48.188;9.964;2022-10-20T14:07:39;25.23;;;12.33;;
29246;SDS011;16272;48.188;9.964;2022-10-20T14:10:24;23.70;;;10.88;;
29246;SDS011;16272;48.188;9.964;2022-10-20T14:12:52;23.88;;;10.90;;
29246;SDS011;16272;48.188;9.964;2022-10-20T14:15:26;28.23;;;11.20;;
29246;SDS011;16272;48.188;9.964;2022-10-20T14:18:02;23.48;;;11.05;;
29246;SDS011;16272;48.188;9.964;2022-10-20T14:20:31;27.13;;;11.80;;
29246;SDS011;16272;48.188;9.964;2022-10-20T14:22:58;28.35;;;11.40;;
29246;SDS011;16272;48.188;9.964;2022-10-20T14:25:26;22.15;;;10.93;;
29246;SDS011;16272;48.188;9.964;2022-10-20T14:27:53;26.27;;;10.55;;
29246;SDS011;16272;48.188;9.964;2022-10-20T14:30:20;24.60;;;10.43;;
29246;SDS011;16272;48.188;9.964;2022-10-20T14:32:47;25.10;;;11.20;;
29246;SDS011;16272;48.188;9.964;2022-10-20T14:35:20;23.95;;;10.82;;
29246;SDS011;16272;48.188;9.964;2022-10-20T14:37:55;25.30;;;11.38;;
29246;SDS011;16272;48.188;9.964;2022-10-20T14:40:25;23.55;;;10.90;;
29246;SDS011;16272;48.188;9.964;2022-10-20T14:43:15;24.83;;;11.33;;
29246;SDS011;16272;48.188;9.964;2022-10-20T14:45:56;25.40;;;11.35;;
29246;SDS011;16272;48.188;9.964;2022-10-20T14:48:24;27.80;;;10.95;;
29246;SDS011;16272;48.188;9.964;2022-10-20T14:56:44;27.77;;;11.07;;
29246;SDS011;16272;48.188;9.964;2022-10-20T14:59:12;24.63;;;11.00;;
29246;SDS011;16272;48.188;9.964;2022-10-20T15:01:56;23.90;;;11.05;;
29246;SDS011;16272;48.188;9.964;2022-10-20T15:04:32;25.52;;;11.45;;
29246;SDS011;16272;48.188;9.964;2022-10-20T15:07:01;26.33;;;12.33;;
29246;SDS011;16272;48.188;9.964;2022-10-20T15:09:33;23.42;;;10.63;;
29246;SDS011;16272;48.188;9.964;2022-10-20T15:12:04;25.35;;;10.90;;
29246;SDS011;16272;48.188;9.964;2022-10-20T15:14:31;25.00;;;11.23;;
29246;SDS011;16272;48.188;9.964;2022-10-20T15:16:56;28.27;;;12.15;;
29246;SDS011;16272;48.188;9.964;2022-10-20T15:21:47;25.37;;;11.77;;
29246;SDS011;16272;48.188;9.964;2022-10-20T15:24:14;26.10;;;11.65;;
29246;SDS011;16272;48.188;9.964;2022-10-20T15:26:39;27.77;;;11.40;;
29246;SDS011;16272;48.188;9.964;2022-10-20T15:29:04;28.73;;;11.53;;
29246;SDS011;16272;48.188;9.964;2022-10-20T15:31:31;25.85;;;11.55;;
29246;SDS011;16272;48.188;9.964;2022-10-20T15:33:57;27.97;;;11.50;;
29246;SDS011;16272;48.188;9.964;2022-10-20T15:36:24;26.67;;;12.37;;
29246;SDS011;16272;48.188;9.964;2022-10-20T15:38:57;26.63;;;12.73;;
29246;SDS011;16272;48.188;9.964;2022-10-20T15:41:25;28.35;;;12.35;;
29246;SDS011;16272;48.188;9.964;2022-10-20T15:43:52;27.20;;;12.25;;
29246;SDS011;16272;48.188;9.964;2022-10-20T15:46:18;29.05;;;12.15;;
29246;SDS011;16272;48.188;9.964;2022-10-20T15:48:44;26.97;;;11.20;;
29246;SDS011;16272;48.188;9.964;2022-10-20T15:53:51;26.38;;;11.35;;
29246;SDS011;16272;48.188;9.964;2022-10-20T15:56:17;26.53;;;10.97;;
29246;SDS011;16272;48.188;9.964;2022-10-20T15:58:43;28.80;;;11.60;;
29246;SDS011;16272;48.188;9.964;2022-10-20T16:01:13;31.13;;;12.13;;
29246;SDS011;16272;48.188;9.964;2022-10-20T16:03:40;33.85;;;12.93;;
29246;SDS011;16272;48.188;9.964;2022-10-20T16:06:07;30.40;;;12.65;;
29246;SDS011;16272;48.188;9.964;2022-10-20T16:08:37;30.02;;;12.93;;
29246;SDS011;16272;48.188;9.964;2022-10-20T16:11:06;30.75;;;12.88;;
29246;SDS011;16272;48.188;9.964;2022-10-20T16:13:33;33.67;;;12.33;;
29246;SDS011;16272;48.188;9.964;2022-10-20T16:16:00;31.90;;;13.32;;
29246;SDS011;16272;48.188;9.964;2022-10-20T16:18:26;33.35;;;12.90;;
29246;SDS011;16272;48.188;9.964;2022-10-20T16:20:52;35.03;;;14.60;;
29246;SDS011;16272;48.188;9.964;2022-10-20T16:23:17;30.43;;;13.23;;
29246;SDS011;16272;48.188;9.964;2022-10-20T16:25:42;34.33;;;16.23;;
29246;SDS011;16272;48.188;9.964;2022-10-20T16:28:08;31.27;;;13.27;;
29246;SDS011;16272;48.188;9.964;2022-10-20T16:30:33;34.45;;;13.90;;
29246;SDS011;16272;48.188;9.964;2022-10-20T16:32:59;32.83;;;14.17;;
29246;SDS011;16272;48.188;9.964;2022-10-20T16:35:24;33.53;;;12.37;;
29246;SDS011;16272;48.188;9.964;2022-10-20T16:37:49;33.23;;;13.73;;
29246;SDS011;16272;48.188;9.964;2022-10-20T16:40:15;30.87;;;12.90;;
29246;SDS011;16272;48.188;9.964;2022-10-20T16:42:40;29.23;;;12.10;;
29246;SDS011;16272;48.188;9.964;2022-10-20T16:45:05;32.77;;;12.37;;
29246;SDS011;16272;48.188;9.964;2022-10-20T16:47:31;29.42;;;13.05;;
29246;SDS011;16272;48.188;9.964;2022-10-20T16:49:57;37.30;;;14.13;;
29246;SDS011;16272;48.188;9.964;2022-10-20T16:52:22;33.53;;;12.90;;
29246;SDS011;16272;48.188;9.964;2022-10-20T16:54:48;31.80;;;13.13;;